Time;durP1;ratioP1;P1;durP2;ratioP2;P2;SDS_P1;SDS_P2;PMS_P1;PMS_P2;Temp;Humidity;BMP_temperature;BMP_pressure;BME280_temperature;BME280_humidity;BME280_pressure;Samples;Min_cycle;Max_cycle;Signal;HPM_P1;HPM_P2
2022/01/08 00:01:59;;;;;;;20.45;11.57;;;;;;;4.89;100.00;100827.66;5089987;28;20027;-77
2022/01/08 00:04:25;;;;;;;14.30;9.10;;;;;;;4.93;100.00;100810.84;5089852;28;20027;-78
2022/01/08 00:06:51;;;;;;;13.63;9.52;;;;;;;4.54;100.00;100752.06;5072231;28;20454;-76
2022/01/08 00:09:16;;;;;;;19.33;10.38;;;;;;;4.81;100.00;100798.13;5089957;28;20108;-80
2022/01/08 00:11:42;;;;;;;19.83;9.60;;;;;;;4.87;100.00;100798.53;5071072;28;20058;-81
2022/01/08 00:14:10;;;;;;;24.55;11.55;;;;;;;4.89;100.00;100796.97;5072060;28;20032;-81
2022/01/08 00:16:37;;;;;;;19.63;11.18;;;;;;;4.92;100.00;100801.41;5071789;28;20390;-79
2022/01/08 00:19:04;;;;;;;12.13;8.93;;;;;;;4.93;100.00;100811.72;5089949;28;20038;-74
2022/01/08 00:21:30;;;;;;;11.82;8.52;;;;;;;4.98;100.00;100809.47;5090345;28;20505;-74
2022/01/08 00:23:55;;;;;;;18.00;8.40;;;;;;;4.95;100.00;100799.94;5090558;28;20117;-75
2022/01/08 00:26:21;;;;;;;19.65;9.25;;;;;;;4.97;100.00;100798.38;5090369;28;20482;-74
2022/01/08 00:28:46;;;;;;;20.35;9.45;;;;;;;5.00;100.00;100805.34;5087703;28;20046;-77
2022/01/08 00:31:12;;;;;;;19.45;10.65;;;;;;;4.98;100.00;100804.34;5089708;28;20031;-75
2022/01/08 00:33:37;;;;;;;11.73;8.70;;;;;;;4.93;100.00;100798.06;5089796;28;20044;-77
2022/01/08 00:36:05;;;;;;;10.57;7.65;;;;;;;4.96;100.00;100799.16;5089866;28;20522;-75
2022/01/08 00:38:31;;;;;;;17.73;10.02;;;;;;;5.01;100.00;100802.00;5089712;28;20508;-78
2022/01/08 00:40:56;;;;;;;18.20;9.45;;;;;;;5.03;100.00;100802.97;5089858;28;20020;-77
2022/01/08 00:43:21;;;;;;;16.50;9.20;;;;;;;4.93;100.00;100796.38;5089505;28;20488;-77
2022/01/08 00:45:47;;;;;;;21.67;11.80;;;;;;;5.06;100.00;100802.28;5090220;28;20024;-76
2022/01/08 00:48:13;;;;;;;12.82;8.52;;;;;;;4.98;100.00;100789.88;5089532;28;20432;-77
2022/01/08 00:50:38;;;;;;;12.93;8.18;;;;;;;4.84;100.00;100760.84;5089656;28;20069;-75
2022/01/08 00:53:05;;;;;;;13.13;8.20;;;;;;;4.91;100.00;100771.47;5088679;28;20043;-77
2022/01/08 00:55:31;;;;;;;18.15;9.25;;;;;;;5.13;100.00;100797.66;5089857;28;20107;-76
2022/01/08 00:57:56;;;;;;;14.15;8.90;;;;;;;5.05;100.00;100790.28;5089725;28;20455;-77
2022/01/08 01:00:22;;;;;;;24.45;12.32;;;;;;;5.14;100.00;100789.19;5090015;28;20028;-75
2022/01/08 01:02:49;;;;;;;10.50;7.90;;;;;;;5.16;100.00;100777.38;5089386;28;20044;-76
2022/01/08 01:05:14;;;;;;;9.05;5.78;;;;;;;5.18;100.00;100782.59;5089611;28;20158;-75
2022/01/08 01:07:40;;;;;;;9.13;5.07;;;;;;;5.16;100.00;100766.28;5089287;28;20091;-76
2022/01/08 01:10:07;;;;;;;8.65;5.13;;;;;;;5.23;100.00;100776.09;5089856;28;20028;-77
2022/01/08 01:12:33;;;;;;;7.70;4.13;;;;;;;5.33;100.00;100760.56;5089390;28;20024;-75
2022/01/08 01:14:59;;;;;;;7.20;4.10;;;;;;;5.36;100.00;100757.28;5089358;28;20036;-75
2022/01/08 01:17:24;;;;;;;8.63;4.43;;;;;;;5.34;100.00;100759.72;5089359;28;20466;-76
2022/01/08 01:19:50;;;;;;;6.70;4.10;;;;;;;5.30;100.00;100739.00;5089608;28;20016;-75
2022/01/08 01:22:19;;;;;;;10.88;4.25;;;;;;;5.35;100.00;100737.59;5091398;28;20390;-76
2022/01/08 01:24:46;;;;;;;6.90;3.38;;;;;;;5.32;100.00;100725.50;5093163;28;20108;-76
2022/01/08 01:47:00;;;;;;;5.60;3.70;;;;;;;5.45;100.00;100703.22;5092585;28;20035;-73
2022/01/08 01:48:52;;;;;;;5.45;3.35;;;;;;;5.48;100.00;100706.84;5092090;28;20127;-74
2022/01/08 01:51:22;;;;;;;6.63;3.60;;;;;;;5.59;100.00;100717.72;5092561;28;20053;-74
2022/01/08 01:53:49;;;;;;;28.10;7.75;;;;;;;5.61;100.00;100703.34;5092605;28;20028;-74
2022/01/08 01:56:19;;;;;;;7.70;4.20;;;;;;;5.66;100.00;100706.19;5092438;28;20018;-76
2022/01/08 01:58:45;;;;;;;9.00;3.55;;;;;;;5.64;100.00;100700.94;5092092;28;20028;-75
2022/01/08 02:01:11;;;;;;;7.82;3.92;;;;;;;5.63;100.00;100700.88;5092361;28;20398;-76
2022/01/08 02:03:36;;;;;;;13.00;4.65;;;;;;;5.56;100.00;100683.34;5029653;28;20084;-76
2022/01/08 02:06:02;;;;;;;10.40;4.10;;;;;;;5.66;100.00;100681.44;5029453;28;20041;-76
2022/01/08 02:08:29;;;;;;;11.88;4.60;;;;;;;5.76;100.00;100698.25;5029427;28;20046;-75
2022/01/08 02:10:54;;;;;;;9.00;4.43;;;;;;;5.70;100.00;100677.41;5029689;28;20118;-75
2022/01/08 02:13:21;;;;;;;12.45;5.32;;;;;;;5.83;100.00;100695.28;5029605;28;20249;-75
2022/01/08 02:15:50;;;;;;;25.40;7.90;;;;;;;5.76;100.00;100674.34;5029143;28;20076;-76
2022/01/08 02:18:15;;;;;;;30.10;8.93;;;;;;;5.78;100.00;100688.09;5029617;28;20092;-74
2022/01/08 02:20:41;;;;;;;17.73;6.90;;;;;;;5.79;100.00;100675.38;5029310;28;20029;-75
2022/01/08 02:23:07;;;;;;;10.50;4.60;;;;;;;5.90;100.00;100678.56;5029300;28;20030;-76
2022/01/08 02:25:32;;;;;;;14.88;5.47;;;;;;;5.85;100.00;100672.31;5029560;28;20096;-75
2022/01/08 02:27:59;;;;;;;9.00;3.70;;;;;;;5.92;100.00;100677.00;5027578;28;20041;-77
2022/01/08 02:30:24;;;;;;;7.85;4.00;;;;;;;5.91;100.00;100675.22;5015376;28;20041;-76
2022/01/08 02:32:49;;;;;;;16.98;6.22;;;;;;;5.93;100.00;100686.47;5009170;28;20516;-76
2022/01/08 02:35:16;;;;;;;11.55;5.45;;;;;;;5.93;100.00;100668.53;5009555;28;20111;-77
2022/01/08 02:37:42;;;;;;;7.93;3.67;;;;;;;5.92;100.00;100663.28;5011666;28;20033;-78
2022/01/08 02:40:08;;;;;;;14.77;5.70;;;;;;;5.85;100.00;100661.19;5022652;28;20041;-80
2022/01/08 02:42:39;;;;;;;12.25;4.53;;;;;;;5.85;100.00;100668.88;5068933;28;20032;-77
2022/01/08 02:45:06;;;;;;;12.52;4.97;;;;;;;5.89;100.00;100664.00;5071759;28;20040;-75
2022/01/08 02:47:32;;;;;;;20.88;7.22;;;;;;;5.91;100.00;100680.34;5089687;28;20429;-74
2022/01/08 02:49:58;;;;;;;35.20;9.98;;;;;;;5.93;100.00;100670.19;5089797;28;20040;-74
2022/01/08 02:52:23;;;;;;;60.92;16.25;;;;;;;5.61;100.00;100616.25;5072828;28;20032;-76
2022/01/08 02:54:49;;;;;;;53.40;16.52;;;;;;;5.90;100.00;100664.91;5089780;28;20531;-76
2022/01/08 02:57:14;;;;;;;46.22;13.82;;;;;;;5.91;100.00;100664.09;5089430;28;20036;-76
2022/01/08 02:59:40;;;;;;;45.42;15.43;;;;;;;5.93;100.00;100671.09;5089589;28;20036;-77
2022/01/08 03:02:05;;;;;;;39.10;14.25;;;;;;;5.92;100.00;100671.88;5040463;28;20422;-77
2022/01/08 03:04:31;;;;;;;48.55;15.80;;;;;;;5.93;100.00;100663.41;5071490;28;20029;-77
2022/01/08 03:06:56;;;;;;;42.83;15.70;;;;;;;5.95;100.00;100668.59;5071585;28;20028;-77
2022/01/08 03:09:22;;;;;;;42.22;13.55;;;;;;;5.96;100.00;100655.00;5071680;28;20036;-77
2022/01/08 03:11:47;;;;;;;44.80;14.40;;;;;;;5.97;100.00;100661.91;5071490;28;20393;-77
2022/01/08 03:14:13;;;;;;;49.45;16.35;;;;;;;5.94;100.00;100657.47;5071491;28;20020;-77
2022/01/08 03:16:38;;;;;;;45.30;16.23;;;;;;;5.95;100.00;100669.47;5071434;28;20482;-77
2022/01/08 03:19:10;;;;;;;38.35;13.48;;;;;;;5.96;100.00;100666.13;5071620;28;20059;-77
2022/01/08 03:21:39;;;;;;;44.90;17.10;;;;;;;5.93;100.00;100671.09;5071314;28;20021;-77
2022/01/08 03:24:07;;;;;;;55.22;17.90;;;;;;;5.91;100.00;100667.53;5071543;28;20482;-77
2022/01/08 03:26:32;;;;;;;34.47;14.73;;;;;;;5.86;100.00;100655.22;5071452;28;20041;-78
2022/01/08 03:29:01;;;;;;;52.70;19.02;;;;;;;5.80;100.00;100648.09;5053552;28;20032;-77
2022/01/08 03:31:26;;;;;;;39.15;15.82;;;;;;;5.85;100.00;100659.50;5071438;28;20024;-77
2022/01/08 03:33:53;;;;;;;26.30;11.32;;;;;;;5.79;100.00;100657.44;5071361;28;20408;-76
2022/01/08 03:36:21;;;;;;;29.65;12.45;;;;;;;5.63;100.00;100637.75;5071043;28;20528;-76
2022/01/08 03:38:48;;;;;;;23.38;11.10;;;;;;;5.86;100.00;100665.47;5071022;28;20536;-77
2022/01/08 03:41:14;;;;;;;24.23;10.20;;;;;;;5.86;100.00;100661.25;5071009;28;20032;-77
2022/01/08 03:43:39;;;;;;;40.15;16.75;;;;;;;5.73;100.00;100640.81;5071131;28;20031;-76
2022/01/08 03:46:05;;;;;;;29.45;11.88;;;;;;;5.43;100.00;100581.88;5070401;28;20029;-76
2022/01/08 03:48:44;;;;;;;21.15;10.60;;;;;;;5.83;100.00;100653.38;5070772;28;20052;-76
2022/01/08 03:51:10;;;;;;;27.48;10.75;;;;;;;5.87;100.00;100655.34;5070724;28;20059;-76
2022/01/08 03:53:36;;;;;;;48.92;16.98;;;;;;;5.86;100.00;100656.13;5052807;28;20024;-76
2022/01/08 03:56:01;;;;;;;41.25;15.23;;;;;;;5.89;100.00;100656.31;5068549;28;20115;-76
2022/01/08 03:58:27;;;;;;;36.10;11.27;;;;;;;5.80;100.00;100650.66;5070581;28;20043;-76
2022/01/08 04:00:54;;;;;;;41.47;12.95;;;;;;;5.86;100.00;100663.81;5070615;28;20700;-77
2022/01/08 04:03:20;;;;;;;33.45;10.25;;;;;;;5.87;100.00;100667.25;5070852;28;20028;-76
2022/01/08 04:05:47;;;;;;;19.30;8.88;;;;;;;5.90;100.00;100663.19;5070646;28;20403;-77
2022/01/08 04:08:14;;;;;;;32.28;11.95;;;;;;;5.75;100.00;100644.38;5070389;28;20028;-77
2022/01/08 04:10:40;;;;;;;13.73;6.35;;;;;;;5.96;100.00;100670.38;5070688;28;20056;-76
2022/01/08 04:13:11;;;;;;;19.10;7.80;;;;;;;5.94;100.00;100667.72;5085313;28;20123;-77
2022/01/08 04:15:39;;;;;;;20.60;6.68;;;;;;;5.99;100.00;100662.88;5070619;28;20111;-76
2022/01/08 04:18:07;;;;;;;19.75;7.22;;;;;;;6.01;100.00;100668.09;5070924;28;20025;-76
2022/01/08 04:20:50;;;;;;;12.70;4.90;;;;;;;5.76;100.00;100626.53;5052515;28;20044;-77
2022/01/08 04:23:20;;;;;;;20.27;8.63;;;;;;;5.94;100.00;100665.16;5070732;28;20029;-76
2022/01/08 04:25:46;;;;;;;14.02;4.97;;;;;;;5.98;100.00;100672.25;5070702;28;20040;-77
2022/01/08 04:28:12;;;;;;;22.42;8.60;;;;;;;6.00;100.00;100662.09;5070506;28;20111;-77
2022/01/08 04:30:37;;;;;;;12.98;6.25;;;;;;;6.01;100.00;100660.41;5070470;28;20459;-76
2022/01/08 04:33:03;;;;;;;11.13;6.32;;;;;;;5.97;100.00;100655.09;5070448;28;20134;-75
2022/01/08 04:35:28;;;;;;;16.83;7.03;;;;;;;5.97;100.00;100667.91;5070545;28;20036;-77
2022/01/08 04:37:54;;;;;;;14.57;5.93;;;;;;;5.92;100.00;100666.75;5070574;28;20043;-77
2022/01/08 04:40:19;;;;;;;18.10;7.75;;;;;;;5.95;100.00;100669.47;5070403;28;20032;-77
2022/01/08 04:42:44;;;;;;;18.48;4.57;;;;;;;5.89;100.00;100666.56;5075348;28;20406;-78
2022/01/08 04:45:11;;;;;;;14.98;4.28;;;;;;;5.80;100.00;100633.59;5090129;28;20060;-77
2022/01/08 04:47:36;;;;;;;14.77;4.35;;;;;;;5.88;100.00;100664.81;5089183;28;20032;-77
2022/01/08 04:50:02;;;;;;;12.80;4.70;;;;;;;5.64;100.00;100624.09;5090561;28;20028;-77
2022/01/08 04:52:28;;;;;;;17.42;6.18;;;;;;;5.87;100.00;100655.34;5090159;28;20055;-77
2022/01/08 04:54:53;;;;;;;16.23;5.65;;;;;;;6.00;100.00;100664.66;5090618;28;20024;-79
2022/01/08 04:57:18;;;;;;;18.70;6.35;;;;;;;5.88;100.00;100654.56;5092665;28;20040;-79
2022/01/08 04:59:44;;;;;;;20.58;6.47;;;;;;;6.01;100.00;100668.09;5094400;28;20032;-79
2022/01/08 05:02:09;;;;;;;13.75;5.47;;;;;;;6.01;100.00;100666.44;5094249;28;20472;-78
2022/01/08 05:04:36;;;;;;;14.05;5.65;;;;;;;6.01;100.00;100663.88;5094172;28;20031;-77
2022/01/08 05:07:02;;;;;;;14.38;4.90;;;;;;;6.04;100.00;100664.03;5094279;28;20139;-77
2022/01/08 05:09:28;;;;;;;21.88;6.75;;;;;;;6.01;100.00;100668.09;5094228;28;20111;-77
2022/01/08 05:11:53;;;;;;;17.83;4.90;;;;;;;5.95;100.00;100671.16;5092814;28;20546;-77
2022/01/08 05:14:19;;;;;;;11.95;5.38;;;;;;;5.78;100.00;100639.41;5094193;28;20031;-77
2022/01/08 05:16:45;;;;;;;10.48;3.20;;;;;;;5.79;100.00;100639.50;5093671;28;20093;-77
2022/01/08 05:19:11;;;;;;;12.43;3.70;;;;;;;5.60;100.00;100623.84;5093777;28;20064;-77
2022/01/08 05:21:38;;;;;;;16.35;3.80;;;;;;;5.78;100.00;100665.94;5094049;28;20052;-78
2022/01/08 05:24:05;;;;;;;15.55;4.00;;;;;;;5.85;100.00;100667.19;5093970;28;20066;-77
2022/01/08 05:26:30;;;;;;;15.23;3.70;;;;;;;5.53;100.00;100619.16;5093932;28;20036;-77
2022/01/08 05:28:56;;;;;;;19.40;4.00;;;;;;;5.68;100.00;100645.66;5092545;28;20123;-77
2022/01/08 05:31:23;;;;;;;10.52;3.38;;;;;;;5.75;100.00;100660.63;5094066;28;20032;-78
2022/01/08 05:33:50;;;;;;;12.93;3.47;;;;;;;5.68;100.00;100666.16;5093870;28;20787;-77
2022/01/08 05:36:16;;;;;;;11.63;3.95;;;;;;;5.68;100.00;100658.47;5093659;28;20093;-77
2022/01/08 05:38:42;;;;;;;7.25;2.97;;;;;;;5.56;100.00;100634.69;5093604;28;20032;-77
2022/01/08 05:41:07;;;;;;;8.88;3.35;;;;;;;5.63;100.00;100649.63;5093735;28;20035;-77
2022/01/08 05:43:33;;;;;;;8.45;3.90;;;;;;;5.55;100.00;100654.31;5075295;28;20032;-77
2022/01/08 05:45:59;;;;;;;14.18;4.75;;;;;;;5.66;100.00;100649.84;5086052;28;20036;-77
2022/01/08 05:48:25;;;;;;;15.85;4.35;;;;;;;5.63;100.00;100649.63;5081797;28;20395;-78
2022/01/08 05:50:51;;;;;;;17.60;5.20;;;;;;;5.75;100.00;100645.25;5073213;28;20038;-77
2022/01/08 05:53:21;;;;;;;26.20;6.88;;;;;;;5.80;100.00;100646.41;5072896;28;20036;-75
2022/01/08 05:55:46;;;;;;;22.55;5.28;;;;;;;5.83;100.00;100650.81;5073075;28;20040;-78
2022/01/08 05:58:12;;;;;;;20.88;6.03;;;;;;;5.84;100.00;100639.78;5072958;28;20070;-77
2022/01/08 06:00:38;;;;;;;28.02;7.05;;;;;;;5.89;100.00;100651.19;5072851;28;20035;-77
2022/01/08 06:03:03;;;;;;;28.75;11.10;;;;;;;5.95;100.00;100650.66;5073234;28;20028;-77
2022/01/08 06:05:29;;;;;;;26.02;11.38;;;;;;;5.93;100.00;100649.69;5073075;28;20473;-77
2022/01/08 06:07:55;;;;;;;42.33;12.60;;;;;;;5.90;100.00;100650.38;5071758;28;20406;-77
2022/01/08 06:10:20;;;;;;;35.45;13.00;;;;;;;5.90;100.00;100645.25;5073068;28;20060;-74
2022/01/08 06:12:46;;;;;;;30.02;13.18;;;;;;;5.89;100.00;100640.06;5071343;28;20037;-75
2022/01/08 06:15:12;;;;;;;33.25;16.73;;;;;;;5.87;100.00;100642.53;5072547;28;20029;-76
2022/01/08 06:17:38;;;;;;;61.03;30.40;;;;;;;5.85;100.00;100640.69;5072632;28;20435;-76
2022/01/08 06:20:04;;;;;;;186.18;118.43;;;;;;;5.73;100.00;100621.25;5072768;28;20031;-74
2022/01/08 06:22:30;;;;;;;568.03;324.88;;;;;;;5.97;100.00;100649.97;5072568;28;20482;-74
2022/01/08 06:24:55;;;;;;;720.05;384.45;;;;;;;5.94;100.00;100638.66;5072836;28;20112;-74
2022/01/08 06:27:21;;;;;;;115.53;55.65;;;;;;;5.97;100.00;100652.53;5072412;28;20498;-74
2022/01/08 06:29:46;;;;;;;98.38;67.32;;;;;;;5.96;100.00;100649.88;5072378;28;20684;-74
2022/01/08 06:32:12;;;;;;;64.13;40.72;;;;;;;5.95;100.00;100655.78;5053179;28;20128;-74
2022/01/08 06:34:37;;;;;;;70.72;60.90;;;;;;;5.92;100.00;100655.59;5046751;28;20057;-74
2022/01/08 06:37:03;;;;;;;46.70;36.95;;;;;;;5.86;100.00;100657.78;5032408;28;20026;-76
2022/01/08 06:39:28;;;;;;;17.85;9.57;;;;;;;5.60;100.00;100618.75;5032674;28;20033;-76
2022/01/08 06:41:54;;;;;;;18.65;13.45;;;;;;;5.86;100.00;100653.56;5032613;28;20029;-76
2022/01/08 06:44:19;;;;;;;15.98;9.40;;;;;;;5.81;100.00;100649.88;5032796;28;20029;-77
2022/01/08 06:46:45;;;;;;;15.82;12.10;;;;;;;5.74;100.00;100655.41;5031976;28;20091;-76
2022/01/08 06:49:10;;;;;;;13.63;7.65;;;;;;;5.74;100.00;100657.97;5032718;28;20025;-76
2022/01/08 06:51:36;;;;;;;27.73;19.90;;;;;;;5.63;100.00;100649.63;5032107;28;20029;-76
2022/01/08 06:54:01;;;;;;;20.42;10.18;;;;;;;5.67;100.00;100649.91;5063231;28;20046;-76
2022/01/08 06:56:27;;;;;;;18.83;10.80;;;;;;;5.65;100.00;100648.94;5031980;28;20484;-76
2022/01/08 06:58:52;;;;;;;36.22;17.83;;;;;;;5.69;100.00;100642.31;5032189;28;20061;-76
2022/01/08 07:01:18;;;;;;;57.88;37.15;;;;;;;5.66;100.00;100645.59;5044340;28;20548;-76
2022/01/08 07:03:43;;;;;;;133.68;79.93;;;;;;;5.68;100.00;100648.22;5051451;28;20108;-76
2022/01/08 07:06:09;;;;;;;182.05;96.28;;;;;;;5.49;100.00;100630.88;5051418;28;20082;-76
2022/01/08 07:08:34;;;;;;;139.57;69.82;;;;;;;5.66;100.00;100650.72;5051216;28;20380;-77
2022/01/08 07:11:00;;;;;;;61.92;34.58;;;;;;;5.61;100.00;100646.13;5051303;28;20017;-77
2022/01/08 07:13:25;;;;;;;95.38;62.58;;;;;;;5.10;100.00;100572.28;5051141;28;20112;-76
2022/01/08 07:15:51;;;;;;;30.85;23.10;;;;;;;5.62;100.00;100658.09;5050941;28;20402;-78
2022/01/08 07:18:16;;;;;;;12.68;9.32;;;;;;;5.52;100.00;100659.25;5051142;28;20021;-74
2022/01/08 07:20:42;;;;;;;20.48;14.73;;;;;;;5.55;100.00;100656.00;5050568;28;20047;-75
2022/01/08 07:23:07;;;;;;;21.75;15.75;;;;;;;5.55;100.00;100662.00;5048155;28;20029;-75
2022/01/08 07:25:33;;;;;;;19.27;13.90;;;;;;;5.48;100.00;100659.84;5066221;28;20025;-76
2022/01/08 07:27:58;;;;;;;17.27;10.27;;;;;;;5.53;100.00;100652.44;5049690;28;20017;-75
2022/01/08 07:30:25;;;;;;;38.90;32.70;;;;;;;5.51;100.00;100649.81;5054153;28;20392;-76
2022/01/08 07:32:52;;;;;;;25.35;20.35;;;;;;;5.52;100.00;100646.47;5060925;28;20032;-75
2022/01/08 07:35:21;;;;;;;16.40;9.77;;;;;;;5.50;100.00;100654.03;5102495;28;20100;-75
2022/01/08 07:37:48;;;;;;;;;;;;;;;5.48;100.00;100647.03;5101688;28;20055;-74
2022/01/08 07:40:14;;;;;;;12.25;7.55;;;;;;;5.45;100.00;100641.75;5100015;28;19911;-76
2022/01/08 07:42:40;;;;;;;12.27;7.43;;;;;;;5.47;100.00;100645.28;5101967;28;20031;-75
2022/01/08 07:45:07;;;;;;;11.20;7.18;;;;;;;5.49;100.00;100646.25;5100670;28;20106;-78
2022/01/08 07:47:33;;;;;;;14.98;9.70;;;;;;;5.28;100.00;100603.22;5100131;28;20565;-77
2022/01/08 07:49:58;;;;;;;14.90;9.25;;;;;;;5.43;100.00;100622.84;5101624;28;20119;-77
2022/01/08 07:52:24;;;;;;;15.13;7.88;;;;;;;5.50;100.00;100637.78;5100473;28;20032;-74
2022/01/08 07:54:49;;;;;;;12.35;10.02;;;;;;;5.49;100.00;100642.00;5094193;28;20036;-75
2022/01/08 07:57:14;;;;;;;16.20;9.02;;;;;;;5.49;100.00;100636.88;5090788;28;20060;-75
2022/01/08 07:59:42;;;;;;;15.40;9.82;;;;;;;5.40;100.00;100618.41;5087541;28;20035;-76
2022/01/08 08:02:08;;;;;;;13.77;9.38;;;;;;;5.19;100.00;100593.28;5090497;28;20034;-77
2022/01/08 08:04:33;;;;;;;12.82;8.68;;;;;;;5.45;100.00;100634.94;5088179;28;20024;-76
2022/01/08 08:06:59;;;;;;;12.10;8.63;;;;;;;5.48;100.00;100640.25;5090566;28;20371;-76
2022/01/08 08:09:24;;;;;;;14.30;8.85;;;;;;;5.51;100.00;100639.56;5090237;28;20397;-77
2022/01/08 08:11:50;;;;;;;15.77;8.65;;;;;;;5.46;100.00;100631.59;5089780;28;20486;-77
2022/01/08 08:14:15;;;;;;;16.70;9.57;;;;;;;5.50;100.00;100641.22;5089663;28;20726;-78
2022/01/08 08:16:41;;;;;;;13.23;10.85;;;;;;;5.51;100.00;100640.44;5074703;28;20405;-77
2022/01/08 08:19:06;;;;;;;17.90;11.32;;;;;;;5.57;100.00;100639.94;5087310;28;20093;-76
2022/01/08 08:21:32;;;;;;;23.40;18.33;;;;;;;5.51;100.00;100642.13;5080695;28;20585;-77
2022/01/08 08:23:57;;;;;;;18.48;13.63;;;;;;;5.49;100.00;100636.88;5099608;28;20452;-77
2022/01/08 08:26:23;;;;;;;20.40;15.75;;;;;;;5.52;100.00;100643.91;5094139;28;20473;-79
2022/01/08 08:28:48;;;;;;;17.45;13.05;;;;;;;5.40;100.00;100617.56;5091785;28;20032;-75
2022/01/08 08:31:13;;;;;;;16.83;11.85;;;;;;;5.55;100.00;100630.38;5053866;28;20032;-76
2022/01/08 08:33:39;;;;;;;14.23;9.75;;;;;;;5.62;100.00;100630.84;5093515;28;20048;-75
2022/01/08 08:36:06;;;;;;;14.55;8.35;;;;;;;5.51;100.00;100613.97;5084106;28;20493;-75
2022/01/08 08:38:31;;;;;;;19.50;9.20;;;;;;;5.56;100.00;100619.31;5102235;28;20100;-75
2022/01/08 08:40:57;;;;;;;15.10;10.70;;;;;;;5.54;100.00;100618.38;5102884;28;20073;-74
2022/01/08 08:43:23;;;;;;;17.90;11.98;;;;;;;5.48;100.00;100614.66;5099784;28;20024;-75
2022/01/08 08:45:48;;;;;;;20.55;12.88;;;;;;;5.45;100.00;100614.47;5094010;28;20028;-76
2022/01/08 08:48:15;;;;;;;22.65;15.35;;;;;;;5.48;100.00;100606.06;5099570;28;20031;-76
2022/01/08 08:50:42;;;;;;;24.73;15.07;;;;;;;5.49;100.00;100600.16;5105581;28;20035;-76
2022/01/08 08:53:09;;;;;;;18.83;10.48;;;;;;;5.41;100.00;100586.91;5105544;28;20035;-75
2022/01/08 08:55:34;;;;;;;41.28;28.27;;;;;;;5.27;100.00;100557.03;5088264;28;20028;-75
2022/01/08 08:58:00;;;;;;;33.88;18.73;;;;;;;5.28;100.00;100558.81;5086878;28;20031;-78
2022/01/08 09:00:25;;;;;;;16.92;10.48;;;;;;;5.12;100.00;100523.72;5104719;28;20027;-77
2022/01/08 09:02:52;;;;;;;17.20;12.90;;;;;;;5.49;100.00;100587.34;5106666;28;20030;-77
2022/01/08 09:05:18;;;;;;;23.30;10.35;;;;;;;5.38;100.00;100571.34;5097144;28;20031;-76
2022/01/08 09:07:45;;;;;;;19.52;15.07;;;;;;;5.48;100.00;100585.59;5092373;28;20478;-77
2022/01/08 09:10:11;;;;;;;32.78;15.65;;;;;;;5.51;100.00;100571.28;5093285;28;20535;-77
2022/01/08 09:12:38;;;;;;;22.95;14.07;;;;;;;5.38;100.00;100530.38;5057491;28;20036;-76
2022/01/08 09:15:05;;;;;;;18.55;15.18;;;;;;;5.52;100.00;100569.63;5093662;28;20024;-76
2022/01/08 09:17:31;;;;;;;22.05;15.10;;;;;;;5.31;100.00;100529.16;5093451;28;20036;-77
2022/01/08 09:19:56;;;;;;;15.95;11.18;;;;;;;5.35;100.00;100530.22;5091797;28;20470;-76
2022/01/08 09:22:22;;;;;;;18.83;12.25;;;;;;;5.49;100.00;100554.06;5093163;28;20038;-75
2022/01/08 09:24:49;;;;;;;37.50;14.70;;;;;;;5.45;100.00;100542.75;5093017;28;20020;-76
2022/01/08 09:27:15;;;;;;;24.40;12.82;;;;;;;5.61;100.00;100556.47;5085537;28;20028;-72
2022/01/08 09:29:41;;;;;;;27.13;17.58;;;;;;;5.53;100.00;100540.66;5091235;28;20074;-74
2022/01/08 09:32:08;;;;;;;19.67;12.43;;;;;;;5.57;100.00;100547.72;5092536;28;20032;-76
2022/01/08 09:34:34;;;;;;;25.00;15.98;;;;;;;5.55;100.00;100544.19;5078958;28;20079;-78
2022/01/08 09:36:59;;;;;;;18.02;12.98;;;;;;;5.44;100.00;100512.81;5073221;28;20143;-78
2022/01/08 09:39:25;;;;;;;24.90;16.73;;;;;;;5.58;100.00;100536.69;5086753;28;20504;-77
2022/01/08 09:41:53;;;;;;;19.60;13.07;;;;;;;5.59;100.00;100523.06;5089669;28;20383;-77
2022/01/08 09:44:18;;;;;;;23.65;14.35;;;;;;;5.56;100.00;100519.44;5096908;28;20535;-75
2022/01/08 09:46:44;;;;;;;20.63;16.40;;;;;;;5.52;100.00;100515.84;5095852;28;20024;-76
2022/01/08 09:49:09;;;;;;;24.73;15.75;;;;;;;5.56;100.00;100519.44;5072134;28;20028;-75
2022/01/08 09:51:36;;;;;;;27.90;18.98;;;;;;;5.56;100.00;100507.53;5087800;28;20028;-74
2022/01/08 09:54:02;;;;;;;36.20;19.20;;;;;;;5.55;100.00;100508.34;5035873;28;20040;-73
2022/01/08 09:56:31;;;;;;;30.88;20.02;;;;;;;5.58;100.00;100510.19;5090638;28;20059;-74
2022/01/08 09:58:57;;;;;;;32.20;21.13;;;;;;;5.61;100.00;100507.81;5089808;28;20024;-75
2022/01/08 10:01:28;;;;;;;30.55;20.60;;;;;;;5.43;100.00;100466.66;5091953;28;20059;-75
2022/01/08 10:03:58;;;;;;;19.67;12.65;;;;;;;5.68;100.00;100484.31;5090133;28;20089;-74
2022/01/08 10:06:26;;;;;;;22.77;15.77;;;;;;;5.22;100.00;100410.00;5073684;28;20039;-73
2022/01/08 10:08:52;;;;;;;20.48;13.90;;;;;;;5.72;100.00;100487.91;5089552;28;20047;-72
2022/01/08 10:11:19;;;;;;;27.10;16.98;;;;;;;5.60;100.00;100465.94;5090027;28;20111;-73
2022/01/08 10:13:47;;;;;;;19.23;14.05;;;;;;;5.59;100.00;100474.41;5090045;28;20071;-74
2022/01/08 10:18:59;;;;;;;22.67;17.05;;;;;;;5.63;100.00;100478.94;5091550;28;20038;-74
2022/01/08 10:21:27;;;;;;;20.23;14.40;;;;;;;5.61;100.00;100465.16;5091522;28;20020;-74
2022/01/08 10:24:05;;;;;;;25.83;15.48;;;;;;;5.63;100.00;100455.88;5083668;28;20036;-75
2022/01/08 10:26:34;;;;;;;19.98;13.77;;;;;;;5.64;100.00;100457.63;5091369;28;20093;-76
2022/01/08 10:29:03;;;;;;;14.18;9.23;;;;;;;5.64;100.00;100454.19;5091774;28;20032;-75
2022/01/08 10:31:44;;;;;;;25.00;17.80;;;;;;;5.58;100.00;100443.59;5091637;28;20028;-76
2022/01/08 10:34:11;;;;;;;20.13;14.65;;;;;;;5.64;100.00;100447.38;5090433;28;20048;-76
2022/01/08 10:36:40;;;;;;;17.17;11.50;;;;;;;5.66;100.00;100440.69;5089950;28;20032;-75
2022/01/08 10:39:10;;;;;;;21.48;13.50;;;;;;;5.65;100.00;100443.16;5038790;28;20040;-75
2022/01/08 10:41:43;;;;;;;18.90;12.50;;;;;;;5.61;100.00;100452.34;5091682;28;20529;-76
2022/01/08 10:44:13;;;;;;;16.17;10.35;;;;;;;5.65;100.00;100444.03;5091453;28;20024;-75
2022/01/08 10:46:59;;;;;;;28.13;18.50;;;;;;;5.70;100.00;100435.75;5091915;28;20533;-75
2022/01/08 10:49:33;;;;;;;39.55;23.48;;;;;;;5.74;100.00;100424.88;5026118;28;20033;-76
2022/01/08 10:52:04;;;;;;;22.48;17.60;;;;;;;5.76;100.00;100419.03;5021256;28;20041;-75
2022/01/08 10:54:32;;;;;;;28.10;18.05;;;;;;;5.83;100.00;100412.53;5025224;28;20045;-75
2022/01/08 10:57:00;;;;;;;19.63;14.88;;;;;;;5.82;100.00;100416.81;5024912;28;20040;-75
2022/01/08 10:59:27;;;;;;;29.50;15.93;;;;;;;5.81;100.00;100414.16;5006276;28;21562;-77
2022/01/08 11:01:55;;;;;;;21.90;16.25;;;;;;;5.83;100.00;100409.97;5028134;28;20056;-77
2022/01/08 11:04:40;;;;;;;28.05;20.15;;;;;;;5.86;100.00;100406.72;5027751;28;20041;-77
2022/01/08 11:07:15;;;;;;;16.40;11.20;;;;;;;5.86;100.00;100411.81;5017610;28;20458;-76
2022/01/08 11:09:43;;;;;;;21.95;16.15;;;;;;;5.88;100.00;100400.00;5026289;28;20045;-77
2022/01/08 11:12:13;;;;;;;24.50;14.68;;;;;;;5.93;100.00;100407.16;5027288;28;20124;-76
2022/01/08 11:15:02;;;;;;;17.73;12.90;;;;;;;5.83;100.00;100385.25;5007411;28;20052;-76
2022/01/08 11:17:33;;;;;;;21.50;15.10;;;;;;;5.95;100.00;100392.72;5008026;28;20034;-77
2022/01/08 11:20:06;;;;;;;89.32;51.03;;;;;;;6.02;100.00;100395.66;5004802;28;20033;-77
2022/01/08 11:22:33;;;;;;;24.77;15.02;;;;;;;5.83;100.00;100345.94;5047900;28;20063;-77
2022/01/08 11:25:07;;;;;;;15.95;11.98;;;;;;;6.05;100.00;100398.41;5048015;28;20093;-76
2022/01/08 11:27:56;;;;;;;19.55;13.50;;;;;;;6.07;100.00;100391.66;5047984;28;20052;-74
2022/01/08 11:30:23;;;;;;;;;;;;;;;6.04;100.00;100384.69;5048113;28;20033;-74
2022/01/08 11:32:52;;;;;;;22.90;15.82;;;;;;;6.01;100.00;100396.44;5047695;28;19969;-74
2022/01/08 11:35:19;;;;;;;16.00;11.82;;;;;;;5.98;100.00;100377.56;5047579;28;20044;-75